Time;durP1;ratioP1;P1;durP2;ratioP2;P2;SDS_P1;SDS_P2;PMS_P1;PMS_P2;Temp;Humidity;BMP_temperature;BMP_pressure;BME280_temperature;BME280_humidity;BME280_pressure;Samples;Min_cycle;Max_cycle;Signal;HPM_P1;HPM_P2
2022/04/27 00:01:31;;;;;;;;;17.00;15.50;;;;;13.03;44.29;101691.06;5158085;27;45458;-65
2022/04/27 00:03:57;;;;;;;;;18.25;15.00;;;;;13.04;44.13;101687.50;5157105;27;46402;-64
2022/04/27 00:06:22;;;;;;;;;14.50;14.00;;;;;12.80;44.49;101651.84;5157432;27;45332;-64
2022/04/27 00:08:47;;;;;;;;;21.50;15.25;;;;;12.90;44.40;101676.34;5162983;27;45394;-65
2022/04/27 00:11:13;;;;;;;;;18.00;14.00;;;;;12.89;43.99;101658.41;5148080;27;45244;-64
2022/04/27 00:13:38;;;;;;;;;13.75;11.00;;;;;13.02;43.99;101694.59;5172148;27;45885;-65
2022/04/27 00:16:04;;;;;;;;;12.25;12.00;;;;;13.02;43.89;101693.69;5174073;27;45122;-64
2022/04/27 00:18:29;;;;;;;;;17.00;16.00;;;;;13.02;44.12;101696.38;5165886;27;45343;-64
2022/04/27 00:20:55;;;;;;;;;15.25;15.25;;;;;12.99;44.02;101697.19;5169724;27;45367;-66
2022/04/27 00:23:21;;;;;;;;;13.25;11.50;;;;;12.95;44.44;101688.97;5171671;27;46559;-64
2022/04/27 00:25:46;;;;;;;;;15.00;10.25;;;;;12.92;43.97;101695.19;5173126;27;45069;-65
2022/04/27 00:28:12;;;;;;;;;17.00;11.50;;;;;12.80;44.46;101684.97;5172309;27;45504;-63
2022/04/27 00:30:37;;;;;;;;;15.50;13.50;;;;;12.81;44.83;101696.59;5164797;27;45489;-64
2022/04/27 00:33:03;;;;;;;;;19.00;12.75;;;;;12.62;45.24;101671.88;5171059;27;45402;-63
2022/04/27 00:35:31;;;;;;;;;15.50;12.75;;;;;12.71;45.00;101688.25;5155540;27;45629;-64
2022/04/27 00:37:56;;;;;;;;;15.00;13.75;;;;;12.75;44.50;101693.69;5164035;27;45430;-64
2022/04/27 00:40:21;;;;;;;;;16.00;13.00;;;;;12.54;44.68;101646.59;5163633;27;45377;-66
2022/04/27 00:42:47;;;;;;;;;14.00;14.00;;;;;12.82;44.65;101696.66;5160307;27;45424;-66
2022/04/27 00:45:12;;;;;;;;;17.50;13.75;;;;;12.61;44.46;101669.13;5163263;27;45438;-64
2022/04/27 00:47:37;;;;;;;;;14.75;14.75;;;;;12.76;44.57;101687.50;5159868;27;45494;-63
2022/04/27 00:50:03;;;;;;;;;17.50;15.25;;;;;12.70;44.75;101691.81;5162748;27;45721;-64
2022/04/27 00:52:30;;;;;;;;;12.50;12.50;;;;;12.37;44.97;101639.75;5173205;27;46213;-64
2022/04/27 00:54:56;;;;;;;;;16.50;13.75;;;;;12.61;44.59;101682.53;5176145;27;45145;-65
2022/04/27 00:57:23;;;;;;;;;13.00;8.00;;;;;12.52;45.74;101676.00;5176755;27;45077;-65
2022/04/27 00:59:49;;;;;;;;;13.25;11.75;;;;;12.59;45.26;101686.91;5169127;27;45316;-65
2022/04/27 01:02:16;;;;;;;;;16.00;12.50;;;;;12.57;45.12;101685.97;5165606;27;46049;-65
2022/04/27 01:04:42;;;;;;;;;16.50;12.75;;;;;12.33;45.32;101652.13;5168783;27;45387;-65
2022/04/27 01:07:07;;;;;;;;;13.25;12.00;;;;;12.47;45.49;101671.34;5174373;27;44925;-63
2022/04/27 01:09:33;;;;;;;;;18.50;13.75;;;;;12.49;45.01;101672.31;5162894;27;45486;-64
2022/04/27 01:12:00;;;;;;;;;13.00;12.25;;;;;12.48;46.02;101670.50;5150371;27;46585;-65
2022/04/27 01:17:00;;;;;;;;;15.50;14.25;;;;;12.33;45.49;101655.72;5855391;22;46447;-65
2022/04/27 01:19:26;;;;;;;;;10.25;10.25;;;;;12.30;45.04;101649.34;5020155;28;45406;-67
2022/04/27 01:21:54;;;;;;;;;18.75;14.00;;;;;12.24;45.42;101650.06;5014230;28;46809;-65
2022/04/27 01:24:26;;;;;;;;;12.50;12.25;;;;;12.24;45.35;101647.38;5014787;28;45454;-64
2022/04/27 01:26:53;;;;;;;;;17.25;14.50;;;;;12.16;45.57;101628.34;5015162;28;45443;-64
2022/04/27 01:29:22;;;;;;;;;7.25;5.50;;;;;12.38;46.38;101671.06;5023555;28;45371;-65
2022/04/27 01:31:48;;;;;;;;;16.00;13.00;;;;;12.13;45.41;101633.59;5030997;28;45655;-63
2022/04/27 01:34:14;;;;;;;;;13.50;12.75;;;;;12.06;45.51;101625.28;5031599;28;45377;-64
2022/04/27 01:36:39;;;;;;;;;11.25;11.25;;;;;12.33;46.37;101677.16;5031362;28;45346;-72
2022/04/27 01:39:06;;;;;;;;;17.25;13.00;;;;;12.33;46.12;101677.16;5031232;28;45250;-63
2022/04/27 01:41:31;;;;;;;;;13.25;12.75;;;;;12.08;45.31;101635.22;5031466;28;45079;-67
2022/04/27 01:43:57;;;;;;;;;18.75;15.50;;;;;11.87;45.79;101595.19;5029621;28;45090;-66
2022/04/27 01:46:23;;;;;;;;;13.75;11.50;;;;;12.21;45.77;101662.41;5031900;28;45244;-70
2022/04/27 01:48:50;;;;;;;;;15.25;13.75;;;;;12.10;45.95;101643.31;5030539;28;45262;-71
2022/04/27 01:51:16;;;;;;;;;16.25;14.00;;;;;12.24;46.04;101667.88;5030107;28;45309;-68
2022/04/27 01:56:25;;;;;;;;;20.50;14.25;;;;;12.06;45.90;101630.66;5030362;28;45058;-65
2022/04/27 01:58:51;;;;;;;;;19.00;16.50;;;;;12.29;45.79;101677.91;5030422;28;45440;-64
2022/04/27 02:01:16;;;;;;;;;14.00;11.00;;;;;11.99;46.19;101640.25;5024608;28;45661;-65
2022/04/27 02:03:42;;;;;;;;;15.75;13.75;;;;;11.93;46.54;101627.56;5012560;28;45508;-65
2022/04/27 02:06:07;;;;;;;;;19.25;16.00;;;;;12.20;46.17;101677.59;5030583;28;45489;-64
2022/04/27 02:08:33;;;;;;;;;15.25;12.50;;;;;12.17;46.17;101682.84;5029972;28;45052;-65
2022/04/27 02:10:58;;;;;;;;;20.50;18.25;;;;;11.96;46.69;101651.78;5028196;28;45515;-65
2022/04/27 02:13:26;;;;;;;;;16.50;11.75;;;;;12.09;46.90;101690.63;5029548;28;45207;-65
2022/04/27 02:15:52;;;;;;;;;17.75;14.25;;;;;11.93;46.67;101670.41;5032405;28;45177;-69
2022/04/27 02:18:19;;;;;;;;;16.00;13.75;;;;;12.07;46.65;101697.66;5032883;28;45284;-66
2022/04/27 02:20:45;;;;;;;;;16.00;12.75;;;;;12.04;47.42;101694.88;5031331;28;46556;-71
2022/04/27 02:23:10;;;;;;;;;16.75;15.75;;;;;12.02;46.93;101685.88;5031144;28;45099;-64
2022/04/27 02:25:36;;;;;;;;;17.00;15.75;;;;;12.05;46.84;101687.78;5031850;28;45148;-65
2022/04/27 02:28:01;;;;;;;;;15.25;14.00;;;;;12.02;46.94;101688.56;5032557;28;45164;-63
2022/04/27 02:30:27;;;;;;;;;16.25;15.00;;;;;12.02;47.62;101682.31;5032102;28;45119;-65
2022/04/27 02:32:52;;;;;;;;;19.50;15.00;;;;;11.80;46.98;101658.31;5030996;28;45329;-67
2022/04/27 02:35:18;;;;;;;;;16.75;16.75;;;;;10.63;47.22;101452.53;5032103;28;45626;-64
2022/04/27 02:37:43;;;;;;;;;16.00;13.00;;;;;11.96;47.56;101689.28;5032590;28;45064;-63
2022/04/27 02:40:10;;;;;;;;;22.00;18.25;;;;;12.02;47.07;101693.03;5031848;28;45970;-69
2022/04/27 02:42:35;;;;;;;;;19.50;16.00;;;;;12.01;47.95;101685.84;5031043;28;45254;-64
2022/04/27 02:45:01;;;;;;;;;16.75;16.50;;;;;11.97;48.04;101684.81;5029205;28;45334;-74
2022/04/27 02:47:26;;;;;;;;;16.50;16.50;;;;;11.53;47.44;101618.09;5030607;28;45152;-67
2022/04/27 02:52:36;;;;;;;;;24.75;16.75;;;;;11.70;47.55;101648.13;5030328;28;45127;-65
2022/04/27 02:55:02;;;;;;;;;23.25;20.50;;;;;11.89;47.75;101686.28;5029107;28;45102;-64
2022/04/27 02:57:27;;;;;;;;;21.75;13.00;;;;;11.73;47.53;101652.66;5030804;28;45344;-65
2022/04/27 02:59:53;;;;;;;;;20.50;17.75;;;;;11.86;47.35;101678.13;5027570;28;45512;-71
2022/04/27 03:02:18;;;;;;;;;20.25;18.25;;;;;11.75;47.70;101659.00;5029399;28;46052;-65
2022/04/27 03:04:44;;;;;;;;;18.25;16.50;;;;;11.88;47.80;101685.38;5030314;28;45477;-65
2022/04/27 03:07:10;;;;;;;;;25.00;21.75;;;;;11.86;48.63;101681.72;5028464;28;45194;-71
2022/04/27 03:09:36;;;;;;;;;20.50;18.75;;;;;11.41;48.50;101617.63;5027461;28;45155;-66
2022/04/27 03:12:01;;;;;;;;;20.75;18.75;;;;;11.25;48.38;101601.00;5021279;28;45420;-64
2022/04/27 03:14:29;;;;;;;;;24.25;19.00;;;;;10.92;49.18;101543.56;5010384;28;45229;-64
2022/04/27 03:16:56;;;;;;;;;19.25;18.75;;;;;11.62;49.08;101671.94;5028384;28;45742;-63
2022/04/27 03:19:21;;;;;;;;;23.75;19.50;;;;;10.32;49.38;101446.91;5023084;28;45672;-64
2022/04/27 03:21:47;;;;;;;;;21.50;19.50;;;;;11.63;49.52;101691.56;5030790;28;45171;-64
2022/04/27 03:24:13;;;;;;;;;21.25;19.75;;;;;10.65;49.32;101530.97;5031511;28;44978;-64
2022/04/27 03:26:39;;;;;;;;;25.25;18.25;;;;;11.57;49.39;101686.91;5032475;28;45056;-65
2022/04/27 03:29:05;;;;;;;;;18.75;15.75;;;;;11.56;49.60;101682.41;5031788;28;45527;-64
2022/04/27 03:31:33;;;;;;;;;24.25;21.50;;;;;11.45;50.58;101683.78;5031878;28;45284;-64
2022/04/27 03:34:00;;;;;;;;;20.75;18.25;;;;;11.46;49.81;101684.69;5031583;28;45044;-65
2022/04/27 03:36:26;;;;;;;;;27.25;25.50;;;;;9.82;49.97;101403.09;5031239;28;45255;-64
2022/04/27 03:38:52;;;;;;;;;27.50;23.75;;;;;11.31;50.25;101674.31;5025476;28;45914;-66
2022/04/27 03:41:22;;;;;;;;;23.25;21.00;;;;;11.33;50.16;101656.56;5032195;28;45028;-70
2022/04/27 03:43:48;;;;;;;;;16.00;11.75;;;;;11.37;50.14;101661.19;5032022;28;45195;-64
2022/04/27 03:46:14;;;;;;;;;29.75;25.75;;;;;11.40;50.55;101667.56;5031964;28;45206;-66
2022/04/27 03:48:40;;;;;;;;;21.50;21.25;;;;;10.87;50.39;101580.81;5030562;28;45025;-64
2022/04/27 03:51:06;;;;;;;;;25.25;23.50;;;;;10.77;50.60;101600.03;5031803;28;45195;-65
2022/04/27 03:53:32;;;;;;;;;22.25;21.00;;;;;10.60;50.92;101541.50;5024885;28;45148;-65
2022/04/27 03:55:57;;;;;;;;;25.75;24.00;;;;;10.90;50.97;101585.38;5032266;28;45304;-66
2022/04/27 03:58:23;;;;;;;;;24.00;22.75;;;;;11.15;50.29;101638.03;5031816;28;45327;-63
2022/04/27 04:00:49;;;;;;;;;29.00;28.00;;;;;10.42;50.72;101516.72;5030053;28;45427;-64
2022/04/27 04:03:14;;;;;;;;;32.75;24.00;;;;;11.15;51.14;101688.84;5034427;28;45120;-64
2022/04/27 04:05:41;;;;;;;;;26.00;22.00;;;;;11.10;51.48;101671.72;5033308;28;45118;-65
2022/04/27 04:08:07;;;;;;;;;27.75;24.25;;;;;10.35;51.52;101538.72;5031135;28;45988;-65
2022/04/27 04:10:33;;;;;;;;;26.50;23.50;;;;;10.89;51.23;101645.97;5032564;28;45440;-64
2022/04/27 04:12:58;;;;;;;;;26.50;23.75;;;;;10.28;51.46;101527.75;5032468;28;45391;-64
2022/04/27 04:15:24;;;;;;;;;24.25;20.25;;;;;10.62;51.56;101592.31;5032481;28;45041;-66
2022/04/27 04:17:49;;;;;;;;;31.00;28.00;;;;;9.87;51.44;101472.69;5034768;28;45231;-65
2022/04/27 04:20:19;;;;;;;;;31.00;25.00;;;;;11.03;51.74;101684.84;5014861;28;45641;-65
2022/04/27 04:22:46;;;;;;;;;27.50;24.25;;;;;10.52;51.83;101604.41;5032405;28;45356;-64
2022/04/27 04:30:41;;;;;;;;;27.75;25.50;;;;;10.86;52.11;101678.84;5030895;28;45570;-65
2022/04/27 04:33:07;;;;;;;;;27.00;26.75;;;;;10.49;52.04;101645.28;5033617;28;45065;-64
2022/04/27 04:35:34;;;;;;;;;27.75;26.75;;;;;10.35;52.61;101592.13;5034510;28;45191;-64
2022/04/27 04:38:00;;;;;;;;;25.25;23.50;;;;;10.15;52.11;101569.06;5034255;28;45501;-64
2022/04/27 04:40:25;;;;;;;;;31.25;26.25;;;;;9.77;52.48;101487.41;5034314;28;45697;-64
2022/04/27 04:42:52;;;;;;;;;35.75;29.50;;;;;9.65;51.88;101478.88;5034615;28;45010;-66
2022/04/27 04:45:17;;;;;;;;;25.25;21.75;;;;;10.79;52.50;101660.75;5034862;28;45134;-64
2022/04/27 04:47:43;;;;;;;;;27.25;26.25;;;;;10.92;52.23;101688.84;5033251;28;45663;-64
2022/04/27 04:50:12;;;;;;;;;32.00;28.00;;;;;10.77;52.30;101665.09;5032388;28;45051;-64
2022/04/27 04:52:38;;;;;;;;;30.75;28.25;;;;;10.86;52.33;101697.56;5032227;28;45067;-68
2022/04/27 04:55:04;;;;;;;;;30.00;27.00;;;;;10.31;52.69;101591.97;5033516;28;45025;-65
2022/04/27 04:57:30;;;;;;;;;33.75;27.50;;;;;10.80;52.05;101712.44;5032156;28;45277;-64
2022/04/27 04:59:56;;;;;;;;;32.75;25.50;;;;;10.80;53.02;101678.59;5033681;28;45142;-64
2022/04/27 05:02:22;;;;;;;;;27.50;24.50;;;;;9.96;52.12;101535.38;5031020;28;45347;-66
2022/04/27 05:04:47;;;;;;;;;28.50;26.25;;;;;10.48;52.39;101630.09;5033364;28;45177;-66
2022/04/27 05:07:13;;;;;;;;;33.50;28.75;;;;;10.93;52.71;101700.47;5033133;28;45738;-64
2022/04/27 05:09:39;;;;;;;;;31.75;27.75;;;;;10.91;52.52;101694.16;5032362;28;45110;-64
2022/04/27 05:12:05;;;;;;;;;30.50;23.25;;;;;9.79;52.40;101523.06;5032578;28;45129;-66
2022/04/27 05:14:31;;;;;;;;;31.75;28.50;;;;;10.69;52.78;101675.50;5033010;28;45527;-65
2022/04/27 05:16:57;;;;;;;;;34.50;28.50;;;;;10.95;52.85;101723.72;5032066;28;45438;-64
2022/04/27 05:19:23;;;;;;;;;35.75;28.25;;;;;10.92;52.85;101725.38;5028601;28;44869;-63
2022/04/27 05:21:49;;;;;;;;;28.75;26.50;;;;;10.51;52.88;101659.63;5032120;28;45015;-66
2022/04/27 05:24:15;;;;;;;;;34.50;27.00;;;;;10.62;53.13;101677.84;5033808;28;45202;-65
2022/04/27 05:26:40;;;;;;;;;39.75;32.00;;;;;10.17;52.62;101590.50;5033120;28;44939;-64
2022/04/27 05:31:58;;;;;;;;;38.75;29.50;;;;;10.92;53.02;101723.59;5032720;28;45160;-63
2022/04/27 05:34:26;;;;;;;;;44.75;33.00;;;;;10.87;52.87;101714.50;5030575;28;44942;-67
2022/04/27 05:36:51;;;;;;;;;34.75;30.75;;;;;10.95;52.96;101730.84;5030518;28;46395;-64
2022/04/27 05:39:21;;;;;;;;;36.00;29.50;;;;;9.85;53.26;101539.34;5030467;28;45214;-70
2022/04/27 05:41:50;;;;;;;;;38.00;31.75;;;;;10.06;53.21;101578.44;5029448;28;46495;-64
2022/04/27 05:44:18;;;;;;;;;33.75;31.50;;;;;10.53;53.53;101680.16;5032740;28;45179;-65
2022/04/27 05:46:44;;;;;;;;;48.25;32.25;;;;;9.76;53.68;101565.63;5031229;28;45616;-63
2022/04/27 05:49:10;;;;;;;;;45.50;36.00;;;;;10.54;53.58;101703.34;5033017;28;45064;-64
2022/04/27 05:51:36;;;;;;;;;37.25;29.75;;;;;10.78;54.06;101751.56;5031825;28;45065;-65
2022/04/27 05:54:02;;;;;;;;;35.50;30.00;;;;;10.17;53.73;101653.69;5033036;28;45136;-66
2022/04/27 05:56:27;;;;;;;;;37.50;30.25;;;;;10.73;53.81;101759.38;5030633;28;45351;-64
2022/04/27 05:58:53;;;;;;;;;45.25;35.00;;;;;10.19;54.24;101673.34;5031596;28;45050;-64
2022/04/27 06:01:19;;;;;;;;;43.00;36.00;;;;;10.05;54.54;101654.97;5031711;28;44952;-65
2022/04/27 06:03:45;;;;;;;;;41.75;32.75;;;;;10.28;54.09;101696.00;5032938;28;45062;-63
2022/04/27 06:06:11;;;;;;;;;37.75;32.25;;;;;10.71;53.44;101758.41;5032102;28;45281;-65
2022/04/27 06:08:37;;;;;;;;;49.75;39.25;;;;;10.05;53.65;101654.06;5029106;28;45152;-64
2022/04/27 06:11:03;;;;;;;;;41.50;34.00;;;;;10.88;53.71;101759.09;5032824;28;45236;-66
2022/04/27 06:13:31;;;;;;;;;38.75;33.50;;;;;9.72;53.66;101577.94;5027432;28;45272;-65
2022/04/27 06:15:57;;;;;;;;;40.25;33.50;;;;;10.30;53.33;101664.03;5032230;28;45651;-67
2022/04/27 06:18:26;;;;;;;;;39.75;33.75;;;;;11.01;52.97;101782.81;5030818;28;45001;-65
2022/04/27 06:20:55;;;;;;;;;41.75;35.00;;;;;9.78;53.45;101596.88;5025943;28;45323;-67
2022/04/27 06:23:21;;;;;;;;;36.75;34.00;;;;;10.88;53.12;101767.13;5032314;28;45349;-67
2022/04/27 06:25:49;;;;;;;;;33.25;31.00;;;;;10.90;53.16;101759.16;5030774;28;45168;-65
2022/04/27 06:28:16;;;;;;;;;42.00;32.25;;;;;11.21;52.95;101802.34;5028858;28;45164;-71
2022/04/27 06:30:42;;;;;;;;;34.75;32.25;;;;;11.12;53.14;101791.28;5030657;28;45181;-70
2022/04/27 06:33:07;;;;;;;;;35.00;28.00;;;;;10.69;53.06;101711.97;5030033;28;45005;-65
2022/04/27 06:35:33;;;;;;;;;41.00;34.50;;;;;10.86;53.23;101721.59;5030464;28;45486;-67
2022/04/27 06:37:59;;;;;;;;;40.00;32.25;;;;;11.33;52.46;101795.69;5029131;28;45165;-69
2022/04/27 06:40:25;;;;;;;;;42.50;34.00;;;;;11.37;52.90;101794.97;5029330;28;45146;-67
2022/04/27 06:42:51;;;;;;;;;41.75;33.00;;;;;11.44;53.06;101810.41;5029719;28;45852;-64
2022/04/27 06:45:17;;;;;;;;;40.00;34.00;;;;;11.11;52.26;101751.13;5031024;28;45512;-67
2022/04/27 06:47:43;;;;;;;;;48.00;34.25;;;;;11.52;52.15;101813.41;5030027;28;45669;-67
2022/04/27 06:50:12;;;;;;;;;39.50;33.25;;;;;11.41;52.32;101787.09;5015850;28;45645;-71
2022/04/27 06:52:46;;;;;;;;;40.50;33.50;;;;;11.55;52.40;101816.16;5014121;28;45450;-65
2022/04/27 06:55:12;;;;;;;;;39.25;33.25;;;;;11.59;52.83;101815.44;5009268;28;45651;-65
2022/04/27 06:57:38;;;;;;;;;43.75;36.50;;;;;11.65;52.29;101817.44;5008647;28;45645;-65
2022/04/27 07:00:04;;;;;;;;;34.00;32.00;;;;;11.59;51.82;101808.31;5011696;28;45679;-68
2022/04/27 07:02:30;;;;;;;;;44.75;32.50;;;;;11.79;52.29;101816.22;5011478;28;45301;-71
2022/04/27 07:05:00;;;;;;;;;43.25;36.75;;;;;11.86;51.92;101828.97;5013084;28;45379;-66
2022/04/27 07:07:26;;;;;;;;;42.75;35.25;;;;;11.83;51.85;101826.22;5013547;28;45428;-67
2022/04/27 07:09:53;;;;;;;;;42.00;35.00;;;;;11.84;51.38;101822.66;5011802;28;45550;-67
2022/04/27 07:12:19;;;;;;;;;33.25;31.25;;;;;11.31;51.83;101720.69;5013275;28;45679;-66
2022/04/27 07:14:46;;;;;;;;;44.25;34.50;;;;;12.00;51.64;101834.00;5012911;28;45566;-66
2022/04/27 07:17:12;;;;;;;;;46.75;36.75;;;;;11.95;51.25;101797.25;5013188;28;45448;-66
2022/04/27 07:19:37;;;;;;;;;38.00;33.75;;;;;12.24;50.97;101834.94;5015302;28;45612;-66
2022/04/27 07:22:03;;;;;;;;;46.00;34.25;;;;;12.33;50.37;101835.25;5017497;28;45602;-67
2022/04/27 07:24:29;;;;;;;;;38.00;34.00;;;;;12.40;50.71;101832.81;5010822;28;45489;-66
2022/04/27 07:26:56;;;;;;;;;43.75;35.00;;;;;12.44;50.74;101832.97;5012447;28;45526;-68
2022/04/27 07:29:22;;;;;;;;;43.50;33.50;;;;;11.91;50.94;101725.69;5013199;28;45364;-66
2022/04/27 07:31:47;;;;;;;;;42.75;34.50;;;;;12.51;50.06;101818.03;5003511;28;45441;-68
2022/04/27 07:34:13;;;;;;;;;40.25;33.75;;;;;12.62;50.69;101832.72;5011993;28;45518;-67
2022/04/27 07:36:39;;;;;;;;;44.75;37.25;;;;;12.63;49.89;101830.94;5013289;28;45604;-67
2022/04/27 07:39:05;;;;;;;;;50.50;36.25;;;;;12.18;50.08;101748.97;5012672;28;45590;-65
2022/04/27 07:41:32;;;;;;;;;39.00;34.25;;;;;12.71;49.70;101824.97;5013238;28;46175;-69
2022/04/27 07:43:57;;;;;;;;;46.50;36.25;;;;;12.27;50.08;101738.56;5003959;28;45495;-67
2022/04/27 07:46:24;;;;;;;;;47.00;36.50;;;;;12.90;49.95;101837.28;5008045;28;45359;-66
2022/04/27 07:48:51;;;;;;;;;47.00;37.00;;;;;12.83;49.71;101831.63;5008931;28;45496;-66
2022/04/27 07:51:17;;;;;;;;;43.50;36.25;;;;;13.02;49.57;101844.81;5013828;28;45661;-67
2022/04/27 07:53:43;;;;;;;;;35.00;30.75;;;;;13.11;49.16;101846.00;5006564;28;46825;-65
2022/04/27 07:56:09;;;;;;;;;37.25;31.75;;;;;12.72;48.90;101770.50;5012851;28;45386;-69
2022/04/27 07:58:35;;;;;;;;;43.50;33.00;;;;;13.06;49.79;101811.84;5013373;28;45505;-66
2022/04/27 08:01:01;;;;;;;;;44.50;37.75;;;;;13.26;49.03;101834.00;5010946;28;45363;-67
2022/04/27 08:03:27;;;;;;;;;46.00;35.00;;;;;13.37;49.17;101825.44;5013205;28;45484;-72
2022/04/27 08:05:52;;;;;;;;;37.75;33.75;;;;;13.40;47.93;101823.75;5012955;28;45936;-66
2022/04/27 08:08:18;;;;;;;;;44.75;35.00;;;;;13.61;48.12;101847.69;5013830;28;45489;-69
2022/04/27 08:10:44;;;;;;;;;43.25;34.00;;;;;13.53;48.67;101827.75;5013935;28;45603;-70
2022/04/27 08:13:10;;;;;;;;;39.00;32.75;;;;;13.81;47.50;101852.78;5013349;28;45308;-68
2022/04/27 08:15:35;;;;;;;;;40.50;34.25;;;;;13.91;47.44;101853.94;5013423;28;45312;-66
2022/04/27 08:18:04;;;;;;;;;70.25;57.50;;;;;13.97;47.82;101852.38;5012810;28;46069;-69
2022/04/27 08:23:20;;;;;;;;;40.75;34.25;;;;;13.99;47.05;101831.84;5012200;28;45535;-66
2022/04/27 08:25:46;;;;;;;;;40.50;33.75;;;;;14.17;47.24;101854.72;5012775;28;45304;-70
2022/04/27 08:28:12;;;;;;;;;45.25;36.00;;;;;14.23;47.33;101849.53;5013170;28;45396;-71
2022/04/27 08:30:41;;;;;;;;;43.50;32.75;;;;;14.16;47.15;101829.63;5013409;28;45420;-66
2022/04/27 08:33:07;;;;;;;;;39.25;34.25;;;;;14.39;47.19;101848.19;5006866;28;45590;-68
2022/04/27 08:35:33;;;;;;;;;42.00;31.50;;;;;14.50;46.57;101851.19;5012999;28;45293;-70
2022/04/27 08:38:00;;;;;;;;;47.25;38.25;;;;;14.55;46.75;101845.06;5006439;28;45404;-67
2022/04/27 08:40:26;;;;;;;;;35.00;30.75;;;;;14.71;46.81;101842.81;5012067;28;45387;-74
2022/04/27 08:42:53;;;;;;;;;32.75;31.50;;;;;14.62;46.16;101815.66;5013260;28;45892;-67
2022/04/27 08:45:19;;;;;;;;;39.50;34.50;;;;;14.74;45.93;101827.69;5012922;28;45385;-69
2022/04/27 08:47:47;;;;;;;;;38.50;33.00;;;;;14.96;46.36;101855.16;5013975;28;45368;-67
2022/04/27 08:50:18;;;;;;;;;43.75;34.75;;;;;15.04;45.81;101849.97;5011387;28;45646;-68
2022/04/27 08:52:44;;;;;;;;;48.50;39.00;;;;;14.96;45.37;101824.66;5021939;28;45552;-67
2022/04/27 08:55:11;;;;;;;;;39.00;33.25;;;;;15.11;45.63;101827.72;5011200;28;45471;-68
2022/04/27 08:57:37;;;;;;;;;43.50;36.25;;;;;15.13;45.22;101828.69;5019131;28;45657;-67
2022/04/27 09:00:09;;;;;;;;;48.25;38.25;;;;;15.28;45.54;101847.91;5003555;28;45371;-68
2022/04/27 09:02:35;;;;;;;;;41.50;33.00;;;;;15.41;45.41;101846.41;5014277;28;47156;-67
2022/04/27 09:05:16;;;;;;;;;39.75;32.50;;;;;15.52;45.52;101843.06;5015524;28;45399;-69
2022/04/27 09:07:52;;;;;;;;;50.50;37.50;;;;;15.57;45.10;101844.97;5018527;28;45563;-67
2022/04/27 09:10:21;;;;;;;;;42.50;35.00;;;;;15.56;45.16;101829.72;5015788;28;45841;-65
2022/04/27 09:12:50;;;;;;;;;46.25;35.50;;;;;15.73;44.83;101846.25;5015357;28;45445;-65
2022/04/27 09:15:18;;;;;;;;;44.00;36.00;;;;;15.75;44.79;101830.13;5022465;28;45550;-66
2022/04/27 09:23:37;;;;;;;;;46.50;35.00;;;;;16.08;44.44;101832.66;4952658;28;45753;-67
2022/04/27 09:26:22;;;;;;;;;45.25;35.75;;;;;15.95;43.83;101807.22;4951976;28;45605;-70
2022/04/27 09:28:50;;;;;;;;;47.25;36.00;;;;;16.27;43.79;101846.53;4991956;28;45445;-66
2022/04/27 09:31:30;;;;;;;;;47.00;37.50;;;;;16.36;43.83;101842.25;5020547;28;45419;-68
2022/04/27 09:37:11;;;;;;;;;36.75;33.50;;;;;16.60;43.48;101835.53;5015435;28;45431;-66
2022/04/27 09:39:37;;;;;;;;;46.00;39.00;;;;;16.59;43.32;101848.09;5009672;28;45463;-67
2022/04/27 09:42:08;;;;;;;;;41.75;35.50;;;;;16.07;43.23;101762.56;5015118;28;45567;-66
2022/04/27 09:44:36;;;;;;;;;43.25;36.00;;;;;16.48;43.17;101816.38;5014755;28;46404;-66
2022/04/27 09:47:03;;;;;;;;;41.75;34.50;;;;;16.67;43.08;101845.53;5015025;28;45511;-66
2022/04/27 09:49:31;;;;;;;;;50.25;39.25;;;;;16.38;43.43;101770.38;5015980;28;45374;-67
2022/04/27 09:51:58;;;;;;;;;40.00;31.50;;;;;16.54;42.98;101785.03;5015667;28;45725;-67
2022/04/27 09:54:25;;;;;;;;;45.75;35.25;;;;;16.97;42.57;101832.63;5004203;28;45586;-65
2022/04/27 09:56:55;;;;;;;;;43.25;37.25;;;;;17.08;42.98;101840.00;5014482;28;45375;-66
2022/04/27 09:59:31;;;;;;;;;45.75;39.50;;;;;16.92;41.96;101805.53;5013222;28;45431;-65
2022/04/27 10:02:11;;;;;;;;;44.75;35.25;;;;;17.06;42.59;101817.50;5014757;28;45184;-66
2022/04/27 10:04:38;;;;;;;;;47.00;39.00;;;;;17.15;42.20;101805.91;5012118;28;46099;-71
2022/04/27 10:07:05;;;;;;;;;43.00;36.50;;;;;17.17;42.32;101800.53;5014406;28;45360;-67
2022/04/27 10:09:32;;;;;;;;;50.50;40.50;;;;;17.38;42.45;101824.28;5014786;28;45603;-66
2022/04/27 10:12:01;;;;;;;;;41.25;35.00;;;;;17.45;42.34;101824.38;5014927;28;45530;-67
2022/04/27 10:14:27;;;;;;;;;46.25;36.00;;;;;17.51;41.66;101818.19;5014058;28;45661;-67
2022/04/27 10:16:56;;;;;;;;;39.25;35.00;;;;;17.55;41.73;101806.53;5013797;28;45621;-66
2022/04/27 10:19:23;;;;;;;;;41.75;35.75;;;;;17.48;41.97;101769.50;5014653;28;45645;-69
2022/04/27 10:21:57;;;;;;;;;35.75;32.75;;;;;17.77;41.30;101815.88;5014779;28;45739;-67
2022/04/27 10:24:35;;;;;;;;;38.75;32.00;;;;;17.82;41.71;101799.72;5014061;28;45457;-66
2022/04/27 10:27:18;;;;;;;;;38.00;34.25;;;;;17.91;41.30;101799.84;5010213;28;45525;-66
2022/04/27 10:29:59;;;;;;;;;49.25;37.50;;;;;17.96;41.51;101794.50;5004015;28;45442;-67
2022/04/27 10:32:37;;;;;;;;;44.75;34.50;;;;;17.90;41.75;101770.09;5011430;28;45490;-67
2022/04/27 10:35:27;;;;;;;;;54.25;42.00;;;;;17.63;40.65;101710.25;5009919;28;45498;-68
2022/04/27 10:38:05;;;;;;;;;33.50;28.50;;;;;17.86;40.66;101736.66;5013634;28;45360;-67
2022/04/27 10:40:43;;;;;;;;;45.50;37.50;;;;;18.03;40.68;101767.56;5008200;28;45602;-67
2022/04/27 10:43:15;;;;;;;;;34.75;32.25;;;;;17.96;40.21;101730.50;5013582;28;45424;-67
2022/04/27 10:45:47;;;;;;;;;36.00;34.25;;;;;17.93;39.76;101730.47;5013517;28;45490;-66
2022/04/27 10:48:24;;;;;;;;;33.25;28.00;;;;;18.10;40.10;101768.56;5009747;28;45811;-67
2022/04/27 10:51:00;;;;;;;;;34.50;30.00;;;;;18.20;39.60;101767.75;5013354;28;45554;-66
2022/04/27 10:53:28;;;;;;;;;40.75;35.25;;;;;18.16;39.23;101767.69;5009729;28;45646;-66
2022/04/27 10:55:55;;;;;;;;;34.50;28.75;;;;;18.04;39.31;101744.13;5013110;28;47077;-67
2022/04/27 10:58:33;;;;;;;;;45.50;34.00;;;;;18.17;39.56;101758.72;5013224;28;45569;-73
2022/04/27 11:00:58;;;;;;;;;27.25;27.25;;;;;18.19;40.02;101765.03;5012534;28;46284;-71
2022/04/27 11:03:28;;;;;;;;;36.75;27.75;;;;;18.19;40.09;101763.22;5010266;28;45715;-70
2022/04/27 11:05:58;;;;;;;;;35.75;31.50;;;;;18.07;39.85;101730.66;5013584;28;45515;-70
2022/04/27 11:08:39;;;;;;;;;36.50;31.75;;;;;18.25;39.66;101759.69;5007154;28;45435;-68
2022/04/27 11:11:06;;;;;;;;;38.00;33.50;;;;;18.23;39.13;101747.94;5012682;28;45513;-68
2022/04/27 11:13:36;;;;;;;;;34.00;31.25;;;;;18.10;38.40;101736.09;4992786;28;45513;-68
2022/04/27 11:16:13;;;;;;;;;24.00;20.75;;;;;18.26;38.25;101747.06;5008257;28;45647;-68
2022/04/27 11:18:49;;;;;;;;;16.75;15.00;;;;;18.33;37.67;101757.97;5013201;28;45415;-70
2022/04/27 11:21:17;;;;;;;;;23.25;21.75;;;;;18.41;38.27;101752.63;5009318;28;45483;-66
2022/04/27 11:23:43;;;;;;;;;30.75;22.25;;;;;18.42;38.23;101735.50;5013127;28;45542;-68
2022/04/27 11:26:09;;;;;;;;;24.75;22.75;;;;;18.11;37.80;101672.09;5011920;28;45466;-69
2022/04/27 11:28:40;;;;;;;;;24.75;22.00;;;;;18.48;37.84;101721.13;5013306;28;45479;-67
2022/04/27 11:31:06;;;;;;;;;35.25;26.25;;;;;18.53;37.59;101719.41;5012530;28;45650;-67
2022/04/27 11:33:35;;;;;;;;;28.00;24.75;;;;;18.74;37.27;101740.31;5003687;28;45479;-67
2022/04/27 11:36:01;;;;;;;;;30.50;24.75;;;;;18.79;37.41;101741.25;5012083;28;45585;-66
2022/04/27 11:38:37;;;;;;;;;21.50;20.50;;;;;18.84;37.07;101747.66;5012068;28;45634;-67